Página principal
METAR-TAF:

METAR-TAF

Aeroportos :

Aeroporto Internacional de Keflavík

Keflavík, Islândia

latitude: 63-58N, longitude: 022-36W, altura: 52 m

Observação actual do tempo

O boletim foi feito há 28 minutos, às 06:30 UTC
Vento 13 kt de nordeste
Temperatura -2°C
Humidade 69%
Pressão 992 hPa
Visibilidade 10 km ou mais
sem nuvens abaixo de 1500 metros e sem cumulonimbus

METAR: BIKF 260630Z 04013KT CAVOK M02/M07 Q0992

Hora: 06:58 (06:58 UTC)

Previsão

O boletim foi feito há 2 horas e 11 minutos, às 04:47 UTC
Previsão válida de 26 às 06 UTC a 27 às 06 UTC
Vento 15 kt de es-nordeste
Visibilidade 10 km ou mais
sem nuvens abaixo de 1500 metros e sem cumulonimbus
Tornando-se
de 27 às 04 UTC a 27 às 06 UTC
Visibilidade 10 km ou mais
Nuvens fragmentadasa uma altura de 2000 ft

TAF: BIKF 260447Z 2606/2706 06015KT CAVOK TXM01/2615Z TNM05/2621Z BECMG 2704/2706 9999 BKN020

Observações e previsões do tempo de mais de 4000 aeroportos (mensagens METAR e TAF).

As estações disponíveis são os pontos amarelos e vermelhos sobre o mapa.

Mova o rato sobre o mapa para ver o nome da estação.

Depois clique no ponto para visualizar as observações e previsões meteorológicas.

Para alterar o mapa : clique nos botões verdes com uma cruz preta para aumentar o zoom; no botão verde com uma pitada de zoom; ou nas setas verdes para mapas adjacentes.


METAR-TAF: